Brasstown, NC (28902)

5:01 PM EDT on August 30, 2015 (GMT -0400)
Elevation 1780 | | Change Station
CLOSE
Current Station
Personal Weather Station
Location: Brasstown, NC
Elevation: 1780 ft
Nearby Weather Stations

Elev 1780 ft 35.02 °N, 83.97 °W | Updated 7 minutes ago

Rain
Rain
65.0 °F
Feels Like 65.0 °F
N
0.0
Wind Variable Wind from NNW
Gusts 0.0 mph

Today
High -- | Low -- °F
--% Chance of Precip.
Yesterday
High -- | Low -- °F
Precip. -- in
7:06 AM 8:05 PM
Full, 98% visible
Pressure 30.16 in
Visibility 10.0 miles
Clouds Scattered Clouds 4700 ft
Overcast 6000 ft
Dew Point 63 °F
Humidity 94%
Rainfall 0.03 in
Snow Depth Not available.
UV 0.0 out of 12
Pollen 8.00 out of 12
Air Quality Not available.
Flu Activity Not available.
METAR KRHP 302035Z AUTO 00000KT 10SM -RA SCT047 OVC060 21/19 A3016 RMK AO2 T02070194
Pressure 30.16 in
Visibility 10.0 miles
Clouds Scattered Clouds 4700 ft
Overcast 6000 ft
Dew Point 63 °F
Humidity 94%
Rainfall 0.03 in
Snow Depth Not available.
UV 0.0 out of 12
Pollen 8.00 out of 12
Air Quality Not available.
Flu Activity Not available.
METAR KRHP 302035Z AUTO 00000KT 10SM -RA SCT047 OVC060 21/19 A3016 RMK AO2 T02070194

10-Day Weather Forecast

×

Almanac

Astronomy

Aug. 30, 2015 Rise Set
Actual Time
Civil Twilight
Nautical Twilight
Astronomical Twilight
Moon
Length of Visible Light
Length of Day
Tomorrow will be .
, % of the Moon is Illuminated

Today's Extremes

State Highs State Lows

Community

WunderPhotos

Upload Photos

1,851,060 photos uploaded!

WunderBlogs® & News

Nearby

Air Quality

  Air Quality AQ Index Pollutant
Not available.

Snow Depth

Station Depth Elevation

Earthquake Activity

City Distance Mag. Time & Date
Minimum magnitude displayed is 2.5.

Coastal Water Temperatures

Place Temperature

Stations

Nearby Weather Stations

Station Location Temp. Windchill Dew Point Humidity Wind Precip. Elev Updated Type